createdAt,value
2023-03-17T00:00:04.567Z,941.78
2023-03-17T00:05:03.311Z,941.88
2023-03-17T00:10:04.428Z,941.96
2023-03-17T00:15:03.364Z,942.02
2023-03-17T00:20:04.227Z,942.06
2023-03-17T00:25:03.187Z,942.08
2023-03-17T00:30:04.325Z,942.17
2023-03-17T00:35:03.315Z,942.23
2023-03-17T00:40:04.198Z,942.29
2023-03-17T00:45:03.343Z,942.29
2023-03-17T00:50:04.223Z,942.27
2023-03-17T00:55:03.188Z,942.27
2023-03-17T01:00:04.321Z,942.25
2023-03-17T01:05:06.476Z,942.23
2023-03-17T01:10:04.441Z,942.27
2023-03-17T01:15:03.520Z,942.31
2023-03-17T01:20:04.374Z,942.35
2023-03-17T01:25:03.219Z,942.29
2023-03-17T01:30:04.313Z,942.27
2023-03-17T01:35:03.275Z,942.31
2023-03-17T01:40:04.377Z,942.37
2023-03-17T01:45:03.329Z,942.41
2023-03-17T01:50:09.202Z,942.41
2023-03-17T01:55:03.164Z,942.39
2023-03-17T02:00:04.282Z,942.45
2023-03-17T02:05:03.289Z,942.47
2023-03-17T02:10:04.363Z,942.45
2023-03-17T02:15:03.415Z,942.45
2023-03-17T02:20:04.245Z,942.53
2023-03-17T02:25:03.360Z,942.51
2023-03-17T02:30:04.278Z,942.45
2023-03-17T02:35:03.245Z,942.37
2023-03-17T02:40:04.303Z,942.29
2023-03-17T02:45:03.417Z,942.27
2023-03-17T02:50:04.244Z,942.19
2023-03-17T02:55:03.555Z,942.15
2023-03-17T03:00:04.318Z,942.10
2023-03-17T03:05:03.291Z,942.10
2023-03-17T03:10:04.398Z,942.19
2023-03-17T03:15:03.351Z,942.19
2023-03-17T03:20:05.605Z,942.21
2023-03-17T03:25:03.171Z,942.13
2023-03-17T03:30:04.304Z,942.13
2023-03-17T03:35:03.300Z,942.13
2023-03-17T03:40:04.154Z,942.15
2023-03-17T03:45:03.385Z,942.11
2023-03-17T03:50:05.204Z,942.10
2023-03-17T03:55:03.178Z,942.10
2023-03-17T04:00:04.400Z,942.15
2023-03-17T04:05:03.450Z,942.11
2023-03-17T04:10:05.094Z,942.08
2023-03-17T04:15:03.314Z,942.10
2023-03-17T04:20:04.229Z,942.10
2023-03-17T04:25:03.404Z,942.10
2023-03-17T04:30:04.313Z,942.04
2023-03-17T04:35:03.246Z,942.04
2023-03-17T04:40:04.357Z,942.06
2023-03-17T04:45:03.274Z,941.98
2023-03-17T04:50:04.398Z,941.90
2023-03-17T04:55:03.467Z,941.84
2023-03-17T05:00:04.266Z,941.84
2023-03-17T05:05:03.228Z,941.80
2023-03-17T05:10:04.375Z,941.72
2023-03-17T05:15:03.325Z,941.74
2023-03-17T05:20:04.379Z,941.78
2023-03-17T05:25:03.160Z,941.82
2023-03-17T05:30:04.536Z,941.84
2023-03-17T05:35:03.352Z,941.80
2023-03-17T05:40:04.337Z,941.80
2023-03-17T05:45:03.270Z,941.78
2023-03-17T05:50:04.233Z,941.80
2023-03-17T05:55:03.416Z,941.74
2023-03-17T06:00:04.273Z,941.74
2023-03-17T06:05:03.257Z,941.68
2023-03-17T06:10:04.654Z,941.70
2023-03-17T06:15:03.280Z,941.68
2023-03-17T06:20:04.398Z,941.64
2023-03-17T06:25:04.256Z,941.63
2023-03-17T06:30:04.507Z,941.61
2023-03-17T06:35:03.184Z,941.61
2023-03-17T06:40:04.303Z,941.59
2023-03-17T06:45:03.361Z,941.59
2023-03-17T06:50:04.412Z,941.53
2023-03-17T06:55:03.524Z,941.49
2023-03-17T07:00:04.275Z,941.43
2023-03-17T07:05:03.263Z,941.47
2023-03-17T07:10:04.358Z,941.51
2023-03-17T07:15:03.336Z,941.51
2023-03-17T07:20:04.431Z,941.51
2023-03-17T07:25:03.452Z,941.43
2023-03-17T07:30:04.200Z,941.37
2023-03-17T07:35:03.264Z,941.35
2023-03-17T07:40:04.495Z,941.37
2023-03-17T07:45:03.398Z,941.45
2023-03-17T07:50:04.166Z,941.47
2023-03-17T07:55:03.327Z,941.53
2023-03-17T08:00:04.283Z,941.55
2023-03-17T08:05:03.270Z,941.55
2023-03-17T08:10:04.321Z,941.64
2023-03-17T08:15:03.274Z,941.66
2023-03-17T08:20:04.188Z,941.68
2023-03-17T08:25:03.378Z,941.66
2023-03-17T08:30:04.475Z,941.66
2023-03-17T08:35:03.218Z,941.72
2023-03-17T08:40:04.299Z,941.78
2023-03-17T08:45:03.376Z,941.80
2023-03-17T08:50:04.389Z,941.80
2023-03-17T08:55:03.180Z,941.92
2023-03-17T09:00:05.286Z,941.98
2023-03-17T09:05:03.196Z,942.00
2023-03-17T09:10:04.319Z,942.04
2023-03-17T09:15:03.405Z,942.11
2023-03-17T09:20:04.468Z,942.21
2023-03-17T09:25:03.529Z,942.31
2023-03-17T09:30:04.299Z,942.39
2023-03-17T09:35:03.185Z,942.47
2023-03-17T09:40:04.239Z,942.43
2023-03-17T09:45:03.348Z,942.37
2023-03-17T09:50:04.158Z,942.39
2023-03-17T09:55:03.372Z,942.37
2023-03-17T10:00:04.267Z,942.37
2023-03-17T10:05:03.375Z,942.39
2023-03-17T10:10:06.563Z,942.43
2023-03-17T10:15:03.373Z,942.47
2023-03-17T10:20:04.380Z,942.41
2023-03-17T10:25:03.784Z,942.51
2023-03-17T10:30:04.211Z,942.55
2023-03-17T10:35:03.282Z,942.63
2023-03-17T10:40:04.337Z,942.68
2023-03-17T10:45:03.302Z,942.68
2023-03-17T10:50:04.540Z,942.76
2023-03-17T10:55:03.334Z,942.82
2023-03-17T11:00:04.244Z,942.84
2023-03-17T11:05:03.213Z,942.84
2023-03-17T11:10:04.289Z,942.74
2023-03-17T11:15:03.309Z,942.74
2023-03-17T11:20:04.506Z,942.72
2023-03-17T11:25:03.354Z,942.78
2023-03-17T11:30:04.255Z,942.78
2023-03-17T11:35:03.237Z,942.90
2023-03-17T11:40:04.314Z,943.08
2023-03-17T11:45:03.325Z,943.20
2023-03-17T11:50:04.481Z,943.25
2023-03-17T11:55:03.528Z,943.33
2023-03-17T12:00:04.285Z,943.29
2023-03-17T12:05:03.279Z,943.27
2023-03-17T12:10:04.288Z,943.31
2023-03-17T12:15:03.242Z,943.31
2023-03-17T12:20:04.400Z,943.41
2023-03-17T12:25:03.378Z,943.47
2023-03-17T12:30:04.485Z,943.61
2023-03-17T12:35:03.228Z,943.68
2023-03-17T12:40:04.361Z,943.82
2023-03-17T12:45:03.310Z,943.78
2023-03-17T12:50:04.387Z,943.82
2023-03-17T12:55:03.322Z,943.80
2023-03-17T13:00:04.485Z,943.84
2023-03-17T13:05:03.356Z,943.86
2023-03-17T13:10:04.286Z,943.86
2023-03-17T13:15:04.190Z,943.94
2023-03-17T13:20:04.403Z,943.96
2023-03-17T13:25:03.319Z,943.94
2023-03-17T13:30:04.261Z,943.96
2023-03-17T13:35:03.185Z,944.06
2023-03-17T13:40:05.058Z,944.06
2023-03-17T13:45:03.283Z,944.08
2023-03-17T13:50:04.174Z,944.10
2023-03-17T13:55:03.370Z,944.12
2023-03-17T14:00:04.443Z,944.17
2023-03-17T14:05:03.266Z,944.17
2023-03-17T14:10:04.490Z,944.15
2023-03-17T14:15:03.293Z,944.23
2023-03-17T14:20:04.409Z,944.21
2023-03-17T14:25:03.413Z,944.17
2023-03-17T14:30:04.226Z,944.17
2023-03-17T14:35:03.318Z,944.13
2023-03-17T14:40:04.613Z,944.15
2023-03-17T14:45:03.302Z,944.12
2023-03-17T14:50:04.373Z,944.08
2023-03-17T14:55:03.404Z,944.06
2023-03-17T15:00:04.228Z,944.00
2023-03-17T15:05:03.388Z,943.94
2023-03-17T15:10:04.342Z,943.88
2023-03-17T15:15:03.262Z,943.82
2023-03-17T15:20:04.420Z,943.78
2023-03-17T15:25:03.389Z,943.74
2023-03-17T15:30:04.291Z,943.66
2023-03-17T15:35:03.235Z,943.63
2023-03-17T15:40:04.703Z,943.68
2023-03-17T15:45:03.270Z,943.68
2023-03-17T15:50:04.451Z,943.66
2023-03-17T15:55:05.081Z,943.63
2023-03-17T16:00:04.500Z,943.61
2023-03-17T16:05:03.430Z,943.61
2023-03-17T16:10:04.257Z,943.47
2023-03-17T16:15:07.805Z,943.51
2023-03-17T16:20:05.272Z,943.49
2023-03-17T16:25:03.405Z,943.39
2023-03-17T16:30:04.237Z,943.35
2023-03-17T16:35:03.336Z,943.23
2023-03-17T16:40:04.443Z,943.14
2023-03-17T16:45:03.269Z,943.08
2023-03-17T16:50:04.416Z,942.98
2023-03-17T16:55:03.148Z,942.86
2023-03-17T17:00:04.615Z,942.82
2023-03-17T17:05:03.199Z,942.78
2023-03-17T17:10:04.265Z,942.70
2023-03-17T17:15:03.279Z,942.59
2023-03-17T17:20:04.382Z,942.53
2023-03-17T17:25:03.534Z,942.45
2023-03-17T17:30:04.295Z,942.33
2023-03-17T17:35:03.170Z,942.25
2023-03-17T17:40:04.340Z,942.17
2023-03-17T17:45:03.272Z,942.00
2023-03-17T17:50:04.400Z,941.92
2023-03-17T17:55:03.367Z,941.82
2023-03-17T18:00:04.385Z,941.68
2023-03-17T18:05:03.388Z,941.53
2023-03-17T18:10:04.283Z,941.35
2023-03-17T18:15:03.271Z,941.23
2023-03-17T18:20:04.171Z,941.09
2023-03-17T18:25:03.360Z,940.86
2023-03-17T18:30:04.199Z,940.80
2023-03-17T18:35:03.262Z,940.76
2023-03-17T18:40:19.001Z,940.70
2023-03-17T18:45:03.212Z,940.59
2023-03-17T18:50:04.577Z,940.57
2023-03-17T18:55:04.422Z,940.51
2023-03-17T19:00:04.211Z,940.45
2023-03-17T19:05:03.413Z,940.35
2023-03-17T19:10:04.236Z,940.29
2023-03-17T19:15:03.377Z,940.21
2023-03-17T19:20:04.386Z,940.09
2023-03-17T19:25:03.416Z,940.04
2023-03-17T19:30:04.200Z,940.06
2023-03-17T19:35:03.166Z,940.06
2023-03-17T19:40:04.231Z,939.94
2023-03-17T19:45:03.236Z,939.82
2023-03-17T19:50:04.475Z,939.80
2023-03-17T19:55:03.353Z,939.70
2023-03-17T20:00:05.445Z,939.62
2023-03-17T20:05:03.175Z,939.56
2023-03-17T20:10:04.269Z,939.58
2023-03-17T20:15:03.234Z,939.66
2023-03-17T20:20:04.338Z,939.70
2023-03-17T20:25:03.531Z,939.70
2023-03-17T20:30:04.406Z,939.60
2023-03-17T20:35:05.612Z,939.56
2023-03-17T20:40:04.565Z,939.49
2023-03-17T20:45:03.275Z,939.49
2023-03-17T20:50:04.389Z,939.49
2023-03-17T20:55:03.501Z,939.47
2023-03-17T21:00:04.385Z,939.51
2023-03-17T21:05:03.205Z,939.56
2023-03-17T21:10:04.235Z,939.62
2023-03-17T21:15:03.279Z,939.60
2023-03-17T21:20:04.328Z,939.62
2023-03-17T21:25:03.321Z,939.62
2023-03-17T21:30:04.470Z,939.68
2023-03-17T21:35:03.196Z,939.72
2023-03-17T21:40:09.233Z,939.70
2023-03-17T21:45:03.233Z,939.78
2023-03-17T21:50:05.763Z,939.82
2023-03-17T21:55:03.352Z,939.86
2023-03-17T22:00:04.406Z,939.98
2023-03-17T22:05:03.148Z,940.06
2023-03-17T22:10:04.237Z,940.17
2023-03-17T22:15:03.223Z,940.23
2023-03-17T22:20:04.372Z,940.35
2023-03-17T22:25:04.327Z,940.41
2023-03-17T22:30:04.314Z,940.47
2023-03-17T22:35:03.169Z,940.53
2023-03-17T22:40:04.311Z,940.64
2023-03-17T22:45:03.189Z,940.76
2023-03-17T22:50:04.346Z,940.88
2023-03-17T22:55:03.372Z,941.09
2023-03-17T23:00:04.472Z,941.23
2023-03-17T23:05:03.152Z,941.31
2023-03-17T23:10:04.456Z,941.37
2023-03-17T23:15:03.334Z,941.45
2023-03-17T23:20:04.392Z,941.57
2023-03-17T23:25:03.390Z,941.74
2023-03-17T23:30:04.448Z,941.86
2023-03-17T23:35:03.415Z,941.94
2023-03-17T23:40:04.434Z,942.02
2023-03-17T23:45:03.268Z,942.08
2023-03-17T23:50:04.419Z,942.13
2023-03-17T23:55:03.299Z,942.27
